Tropical Cyclones
[Index]
Main Index Home Page Stock Weather Photos Extreme Storms Discussion Storm News and Storm Chasing Reports Tropical Cyclones / Hurricanes / Typhoons Weather Data and Links Wild Fires / Bushfires Weather Observation Techniques Weather Picture Catalogue Tornado Pictures and Reports Stock Video Footage and DVDs for sale
Season 1983-1984 Tropical Cyclone GRACE Track Map
Season 1983-1984 Summaries: [BoM-AU] [JTWC-AU] [JTWC-SIO] [JTWC-SPAC] [JTWC-SH]
<<- Previous TC | JTWC 1983-1984 Season | Next TC ->>

click for intensity scale information  Lat/long Grid: Show Hide

 Date Labels: Show Hide

Joint Typhoon Warning Centre Cyclone Data

Name: GRACE

11 Jan 1984 18:00 UTC to 19 Jan 1984 18:00 UTC

    date/time    lat    long     hPa   cat  kts
1984-01-11 18   15.6   149.2                  20          
1984-01-12 00   15.5   149.7                  25          
1984-01-12 06   15.4   150.1                  30          
1984-01-12 12   15.3   150.5                  35          
1984-01-12 18   15.1   150.9                  35          
1984-01-13 00   15.0   151.3            1     40          
1984-01-13 06   15.1   151.7            1     45          
1984-01-13 12   15.4   151.8            1     45          
1984-01-13 18   15.7   151.6            1     45          
1984-01-14 00   16.1   151.3            1     50          
1984-01-14 06   16.5   151.0            2     55          
1984-01-14 12   17.0   150.9            2     55          
1984-01-14 18   17.6   150.9            2     55          
1984-01-15 00   18.1   151.0            2     60          
1984-01-15 06   18.7   151.2            2     60          
1984-01-15 12   19.2   151.5            2     60          
1984-01-15 18   19.6   152.1            2     60          
1984-01-16 00   20.0   153.1            2     65          
1984-01-16 06   20.3   154.1            2     65          
1984-01-16 12   20.5   155.0            2     65          
1984-01-16 18   20.8   155.9            2     60          
1984-01-17 00   21.9   156.0            2     60          
1984-01-17 06   23.0   156.0            2     55          
1984-01-17 12   23.4   157.0            2     55          
1984-01-17 18   23.6   158.0            1     50          
1984-01-18 00   23.6   158.6            1     50          
1984-01-18 06   23.7   159.2            1     45          
1984-01-18 12   23.7   159.7            1     45          
1984-01-18 18   23.8   160.2            1     40          
1984-01-19 00   23.8   160.8            1     40          
1984-01-19 06   23.6   161.3                  35          
1984-01-19 12   23.3   161.8                  30          
1984-01-19 18   22.9   162.2                  25          
Winds are 1-min average.

Tropical cyclone tracks developed by Michael Bath using data from the Joint Typhoon Warning Centre Best Tracks and Google Maps.


[Australian Severe Weather index] [Copyright Notice] [Email Contacts] [Search This Site] [Privacy Policy]
Document: tropical_cyclone_grace.htm Updated: 18 September 2016